高松空港の過去48時間の天気

高松空港 (Takamatsu)

現在時刻: 9/19 08:38 JST (9/18 23:38 UTC) 以下の時間は現地時間です。

過去48時間のMETAR気象情報
時間 風向 風速(m/s) 視程 気温(℃) 湿度(%) 気圧(hPa) 天気現象
19 08:00 不定 1 10km以上 22 88 1014
19 07:00 南南東 2 10km以上 21 94 1014
19 06:20 南南西 3 10km以上 20 100 1014
RJOT 182300Z VRB02KT 9999 FEW015 SCT050 BKN080 22/20 Q1014
RJOT 182200Z 15004KT 130V230 9999 FEW015 SCT050 BKN080 21/20 Q1014
RJOT 182120Z 21005KT 9999 FEW010 SCT060 20/20 Q1014 RMK 1ST010 3SC060 A2995